createdAt,value
2023-01-29T00:01:06.023Z,18.15
2023-01-29T00:03:34.380Z,18.72
2023-01-29T00:06:02.993Z,18.02
2023-01-29T00:08:30.559Z,17.47
2023-01-29T00:10:57.161Z,17.89
2023-01-29T00:13:24.751Z,17.93
2023-01-29T00:15:53.337Z,18.10
2023-01-29T00:18:20.955Z,19.38
2023-01-29T00:20:49.883Z,18.48
2023-01-29T00:23:18.642Z,18.39
2023-01-29T00:25:46.741Z,17.71
2023-01-29T00:28:15.340Z,18.39
2023-01-29T00:30:43.928Z,19.65
2023-01-29T00:33:12.664Z,19.81
2023-01-29T00:35:41.871Z,19.85
2023-01-29T00:38:10.762Z,19.82
2023-01-29T00:40:38.306Z,19.17
2023-01-29T00:43:05.891Z,19.99
2023-01-29T00:45:34.684Z,20.23
2023-01-29T00:48:03.129Z,19.78
2023-01-29T00:50:31.728Z,19.80
2023-01-29T00:53:00.320Z,19.47
2023-01-29T00:55:27.949Z,19.52
2023-01-29T00:57:56.720Z,19.02
2023-01-29T01:00:26.099Z,19.35
2023-01-29T01:02:55.371Z,18.61
2023-01-29T01:05:22.320Z,17.98
2023-01-29T01:07:51.474Z,17.64
2023-01-29T01:10:18.660Z,17.01
2023-01-29T01:12:47.115Z,16.45
2023-01-29T01:15:15.851Z,16.11
2023-01-29T01:17:43.324Z,15.06
2023-01-29T01:20:11.913Z,16.11
2023-01-29T01:22:40.867Z,16.12
2023-01-29T01:25:09.095Z,14.98
2023-01-29T01:27:36.694Z,16.35
2023-01-29T01:30:05.265Z,14.45
2023-01-29T01:32:32.889Z,13.96
2023-01-29T01:35:00.464Z,14.06
2023-01-29T01:37:28.085Z,13.35
2023-01-29T01:39:56.823Z,13.79
2023-01-29T01:42:24.268Z,15.02
2023-01-29T01:44:51.868Z,14.57
2023-01-29T01:47:20.485Z,14.97
2023-01-29T01:49:48.062Z,15.22
2023-01-29T01:52:15.640Z,14.23
2023-01-29T01:54:43.276Z,14.19
2023-01-29T01:57:10.885Z,13.62
2023-01-29T01:59:40.110Z,14.42
2023-01-29T02:02:07.063Z,14.53
2023-01-29T02:04:34.665Z,13.50
2023-01-29T02:07:03.833Z,13.41
2023-01-29T02:09:31.836Z,14.73
2023-01-29T02:12:00.623Z,14.27
2023-01-29T02:14:28.069Z,14.58
2023-01-29T02:16:56.734Z,14.76
2023-01-29T02:19:24.251Z,13.95
2023-01-29T02:21:52.872Z,12.97
2023-01-29T02:24:20.559Z,13.27
2023-01-29T02:26:49.048Z,13.28
2023-01-29T02:29:17.657Z,12.36
2023-01-29T02:31:46.244Z,12.37
2023-01-29T02:34:13.836Z,11.85
2023-01-29T02:36:41.435Z,13.03
2023-01-29T02:39:10.058Z,13.50
2023-01-29T02:41:37.620Z,13.04
2023-01-29T02:44:04.218Z,12.95
2023-01-29T02:46:31.801Z,13.29
2023-01-29T02:49:00.411Z,13.05
2023-01-29T02:51:26.993Z,12.23
2023-01-29T02:53:55.959Z,12.21
2023-01-29T02:56:23.205Z,11.81
2023-01-29T02:58:50.800Z,12.22
2023-01-29T03:01:19.391Z,12.02
2023-01-29T03:03:47.003Z,12.19
2023-01-29T03:06:15.570Z,12.01
2023-01-29T03:08:44.474Z,12.80
2023-01-29T03:11:11.803Z,13.33
2023-01-29T03:13:39.369Z,12.89
2023-01-29T03:16:07.017Z,12.67
2023-01-29T03:18:34.568Z,11.40
2023-01-29T03:21:01.468Z,12.19
2023-01-29T03:23:28.735Z,11.81
2023-01-29T03:25:56.355Z,10.72
2023-01-29T03:28:23.936Z,11.47
2023-01-29T03:30:52.811Z,11.73
2023-01-29T03:33:19.629Z,11.18
2023-01-29T03:35:47.740Z,12.23
2023-01-29T03:38:16.325Z,12.28
2023-01-29T03:40:42.957Z,10.89
2023-01-29T03:43:11.674Z,11.72
2023-01-29T03:45:39.149Z,10.94
2023-01-29T03:48:06.711Z,10.42
2023-01-29T03:50:35.735Z,11.67
2023-01-29T03:53:02.878Z,11.10
2023-01-29T03:55:30.491Z,10.88
2023-01-29T03:57:58.064Z,11.95
2023-01-29T04:00:25.676Z,12.06
2023-01-29T04:02:52.305Z,11.53
2023-01-29T04:05:19.905Z,10.88
2023-01-29T04:07:47.487Z,11.74
2023-01-29T04:10:16.835Z,12.81
2023-01-29T04:12:43.708Z,12.39
2023-01-29T04:15:12.302Z,12.18
2023-01-29T04:17:39.970Z,12.41
2023-01-29T04:20:07.502Z,13.31
2023-01-29T04:22:35.124Z,13.30
2023-01-29T04:25:03.673Z,13.71
2023-01-29T04:27:32.533Z,13.64
2023-01-29T04:29:59.885Z,13.26
2023-01-29T04:32:28.452Z,11.83
2023-01-29T04:34:56.081Z,12.23
2023-01-29T04:37:24.664Z,12.29
2023-01-29T04:39:53.302Z,12.95
2023-01-29T04:42:24.760Z,12.90
2023-01-29T04:44:51.511Z,13.69
2023-01-29T04:47:19.119Z,13.39
2023-01-29T04:49:46.664Z,14.17
2023-01-29T04:52:14.264Z,14.06
2023-01-29T04:54:42.847Z,14.56
2023-01-29T04:57:11.872Z,14.38
2023-01-29T04:59:40.067Z,14.20
2023-01-29T05:02:08.678Z,14.12
2023-01-29T05:04:37.283Z,14.25
2023-01-29T05:07:05.880Z,13.61
2023-01-29T05:09:34.927Z,14.18
2023-01-29T05:12:02.076Z,12.87
2023-01-29T05:14:30.975Z,13.81
2023-01-29T05:16:58.288Z,13.77
2023-01-29T05:19:26.901Z,14.36
2023-01-29T05:21:55.504Z,13.68
2023-01-29T05:24:23.228Z,13.33
2023-01-29T05:26:52.162Z,13.16
2023-01-29T05:29:20.275Z,13.08
2023-01-29T05:31:48.926Z,13.07
2023-01-29T05:34:17.475Z,12.96
2023-01-29T05:36:45.081Z,13.52
2023-01-29T05:39:14.093Z,12.76
2023-01-29T05:41:41.267Z,13.55
2023-01-29T05:44:10.394Z,12.84
2023-01-29T05:46:38.463Z,13.30
2023-01-29T05:49:08.079Z,12.91
2023-01-29T05:51:35.684Z,14.03
2023-01-29T05:54:04.661Z,12.93
2023-01-29T05:56:31.840Z,13.24
2023-01-29T05:58:59.464Z,13.47
2023-01-29T06:01:27.051Z,12.64
2023-01-29T06:03:54.634Z,12.48
2023-01-29T06:06:23.249Z,11.98
2023-01-29T06:08:51.825Z,11.80
2023-01-29T06:11:18.462Z,11.99
2023-01-29T06:13:46.013Z,11.81
2023-01-29T06:16:14.884Z,12.08
2023-01-29T06:18:43.218Z,12.91
2023-01-29T06:21:11.793Z,12.83
2023-01-29T06:23:40.694Z,12.91
2023-01-29T06:26:09.015Z,12.57
2023-01-29T06:28:37.601Z,13.61
2023-01-29T06:33:54.018Z,13.59
2023-01-29T06:36:21.489Z,12.09
2023-01-29T06:38:49.090Z,13.25
2023-01-29T06:41:17.758Z,13.77
2023-01-29T06:43:45.309Z,12.69
2023-01-29T06:46:12.859Z,13.05
2023-01-29T06:48:41.855Z,12.92
2023-01-29T06:51:09.095Z,13.26
2023-01-29T06:53:36.678Z,13.57
2023-01-29T06:56:05.693Z,13.73
2023-01-29T06:58:32.846Z,13.17
2023-01-29T07:01:01.811Z,12.33
2023-01-29T07:03:30.065Z,12.38
2023-01-29T07:05:58.834Z,12.25
2023-01-29T07:08:27.576Z,13.83
2023-01-29T07:10:56.540Z,12.43
2023-01-29T07:13:23.453Z,11.73
2023-01-29T07:15:51.050Z,12.18
2023-01-29T07:18:19.671Z,11.32
2023-01-29T07:20:47.301Z,11.73
2023-01-29T07:23:14.856Z,13.23
2023-01-29T07:25:42.506Z,12.05
2023-01-29T07:28:10.060Z,12.16
2023-01-29T07:30:39.393Z,13.09
2023-01-29T07:33:07.656Z,14.71
2023-01-29T07:35:35.863Z,14.41
2023-01-29T07:38:03.559Z,12.26
2023-01-29T07:40:31.143Z,11.09
2023-01-29T07:42:57.711Z,10.70
2023-01-29T07:45:26.377Z,11.49
2023-01-29T07:47:53.927Z,12.54
2023-01-29T07:50:21.520Z,13.85
2023-01-29T07:52:50.689Z,13.50
2023-01-29T07:55:17.670Z,13.85
2023-01-29T07:57:46.263Z,15.51
2023-01-29T08:00:15.226Z,14.97
2023-01-29T08:02:42.483Z,14.42
2023-01-29T08:05:11.077Z,15.14
2023-01-29T08:07:38.657Z,16.23
2023-01-29T08:10:08.987Z,16.53
2023-01-29T08:12:35.861Z,19.11
2023-01-29T08:15:04.459Z,21.48
2023-01-29T08:17:32.024Z,19.08
2023-01-29T08:19:59.652Z,21.29
2023-01-29T08:22:28.227Z,16.87
2023-01-29T08:25:06.302Z,15.19
2023-01-29T08:27:35.486Z,15.54
2023-01-29T08:30:03.087Z,15.26
2023-01-29T08:32:30.676Z,15.00
2023-01-29T08:34:58.270Z,14.26
2023-01-29T08:43:02.010Z,14.36
2023-01-29T08:45:29.831Z,14.56
2023-01-29T08:47:57.497Z,14.54
2023-01-29T08:50:25.078Z,15.05
2023-01-29T08:52:51.545Z,15.58
2023-01-29T08:55:18.661Z,17.62
2023-01-29T08:57:46.859Z,15.50
2023-01-29T09:00:13.308Z,15.74
2023-01-29T09:02:39.840Z,17.85
2023-01-29T09:05:06.651Z,16.76
2023-01-29T09:07:33.232Z,15.51
2023-01-29T09:10:02.120Z,15.81
2023-01-29T09:12:29.420Z,15.11
2023-01-29T09:14:56.022Z,17.26
2023-01-29T09:17:22.493Z,15.87
2023-01-29T09:19:49.225Z,17.09
2023-01-29T09:22:16.787Z,16.25
2023-01-29T09:24:43.384Z,15.70
2023-01-29T09:27:09.996Z,17.29
2023-01-29T09:29:37.587Z,16.62
2023-01-29T09:32:04.064Z,16.08
2023-01-29T09:34:30.752Z,15.91
2023-01-29T09:36:57.345Z,14.96
2023-01-29T09:39:24.969Z,15.38
2023-01-29T09:41:51.580Z,14.31
2023-01-29T09:44:18.435Z,16.23
2023-01-29T09:46:45.741Z,15.93
2023-01-29T09:49:13.334Z,15.91
2023-01-29T09:51:40.934Z,15.32
2023-01-29T09:54:08.539Z,15.64
2023-01-29T09:56:35.158Z,14.86
2023-01-29T09:59:02.736Z,14.95
2023-01-29T10:01:29.387Z,14.65
2023-01-29T10:03:56.912Z,14.30
2023-01-29T10:06:23.388Z,14.95
2023-01-29T10:08:49.839Z,14.09
2023-01-29T10:11:16.320Z,14.86
2023-01-29T10:13:42.749Z,14.88
2023-01-29T10:16:09.197Z,14.59
2023-01-29T10:18:36.449Z,14.35
2023-01-29T10:21:05.140Z,14.72
2023-01-29T10:23:34.443Z,14.68
2023-01-29T10:26:02.237Z,14.44
2023-01-29T10:28:29.817Z,14.94
2023-01-29T10:30:56.336Z,14.11
2023-01-29T10:33:24.053Z,14.61
2023-01-29T10:35:50.877Z,14.85
2023-01-29T10:38:19.202Z,13.76
2023-01-29T10:40:46.801Z,13.78
2023-01-29T10:43:16.379Z,13.87
2023-01-29T10:45:43.986Z,13.36
2023-01-29T10:48:10.582Z,13.34
2023-01-29T10:50:37.036Z,12.80
2023-01-29T10:53:03.778Z,13.98
2023-01-29T10:55:30.464Z,13.89
2023-01-29T10:57:59.060Z,14.34
2023-01-29T11:00:25.651Z,14.34
2023-01-29T11:02:52.545Z,14.13
2023-01-29T11:05:20.841Z,15.29
2023-01-29T11:07:48.453Z,15.96
2023-01-29T11:10:16.202Z,14.93
2023-01-29T11:12:43.653Z,15.53
2023-01-29T11:15:11.251Z,15.50
2023-01-29T11:17:37.824Z,16.40
2023-01-29T11:20:05.423Z,15.66
2023-01-29T11:22:32.001Z,15.29
2023-01-29T11:25:00.620Z,14.68
2023-01-29T11:27:28.211Z,14.90
2023-01-29T11:29:55.798Z,15.67
2023-01-29T11:32:24.413Z,14.81
2023-01-29T11:34:51.256Z,15.26
2023-01-29T11:37:18.590Z,16.33
2023-01-29T11:39:46.241Z,15.78
2023-01-29T11:42:14.918Z,16.57
2023-01-29T11:44:42.465Z,15.64
2023-01-29T11:47:11.065Z,15.88
2023-01-29T11:49:37.763Z,16.77
2023-01-29T11:52:05.345Z,16.87
2023-01-29T11:54:32.923Z,18.15
2023-01-29T11:57:00.519Z,17.97
2023-01-29T11:59:28.132Z,17.23
2023-01-29T12:01:54.780Z,18.38
2023-01-29T12:04:22.343Z,17.89
2023-01-29T12:06:51.079Z,18.16
2023-01-29T12:09:18.561Z,18.39
2023-01-29T12:11:45.486Z,17.68
2023-01-29T12:14:13.742Z,16.17
2023-01-29T12:16:42.605Z,17.65
2023-01-29T12:19:11.784Z,16.43
2023-01-29T12:21:41.818Z,16.39
2023-01-29T12:24:08.660Z,16.26
2023-01-29T12:26:35.319Z,16.12
2023-01-29T12:29:01.857Z,16.63
2023-01-29T12:31:29.499Z,17.21
2023-01-29T12:33:57.058Z,16.82
2023-01-29T12:36:23.661Z,16.84
2023-01-29T12:38:50.348Z,17.04
2023-01-29T12:41:17.928Z,17.62
2023-01-29T12:43:44.534Z,18.62
2023-01-29T12:46:12.135Z,20.38
2023-01-29T12:48:38.728Z,19.21
2023-01-29T12:51:05.378Z,19.59
2023-01-29T12:53:31.991Z,17.98
2023-01-29T12:55:58.791Z,17.54
2023-01-29T12:58:26.388Z,17.56
2023-01-29T13:00:53.058Z,17.76
2023-01-29T13:03:19.765Z,17.30
2023-01-29T13:05:46.255Z,16.42
2023-01-29T13:08:13.875Z,15.90
2023-01-29T13:10:40.500Z,16.21
2023-01-29T13:13:07.393Z,16.55
2023-01-29T13:15:34.721Z,16.16
2023-01-29T13:18:01.373Z,21.17
2023-01-29T13:20:30.233Z,22.81
2023-01-29T13:22:57.562Z,16.44
2023-01-29T13:25:24.178Z,16.91
2023-01-29T13:27:52.132Z,15.98
2023-01-29T13:30:20.613Z,17.96
2023-01-29T13:32:48.211Z,18.41
2023-01-29T13:35:17.059Z,17.25
2023-01-29T13:37:45.440Z,19.50
2023-01-29T13:40:13.040Z,17.85
2023-01-29T13:42:40.633Z,16.97
2023-01-29T13:45:08.212Z,17.14
2023-01-29T13:47:35.830Z,18.13
2023-01-29T13:50:02.475Z,15.69
2023-01-29T13:52:30.101Z,15.32
2023-01-29T13:54:57.685Z,15.71
2023-01-29T13:57:25.292Z,16.11
2023-01-29T13:59:52.883Z,15.42
2023-01-29T14:02:19.879Z,30.73
2023-01-29T14:04:48.060Z,18.06
2023-01-29T14:07:16.968Z,15.52
2023-01-29T14:09:44.271Z,16.21
2023-01-29T14:12:11.831Z,17.20
2023-01-29T14:14:39.477Z,18.36
2023-01-29T14:17:07.057Z,17.59
2023-01-29T14:19:34.824Z,17.18
2023-01-29T14:22:02.381Z,16.69
2023-01-29T14:24:30.017Z,15.66
2023-01-29T14:26:56.591Z,16.52
2023-01-29T14:29:33.911Z,16.03
2023-01-29T14:32:01.955Z,27.28
2023-01-29T14:34:29.546Z,22.08
2023-01-29T14:36:56.121Z,16.51
2023-01-29T14:39:22.537Z,17.55
2023-01-29T14:41:48.974Z,17.52
2023-01-29T14:44:15.919Z,18.42
2023-01-29T14:46:42.571Z,17.46
2023-01-29T14:49:10.136Z,17.23
2023-01-29T14:51:36.553Z,21.36
2023-01-29T14:54:02.983Z,18.26
2023-01-29T14:56:29.390Z,17.51
2023-01-29T14:58:56.310Z,16.36
2023-01-29T15:01:23.612Z,16.35
2023-01-29T15:03:50.034Z,17.14
2023-01-29T15:06:16.464Z,21.46
2023-01-29T15:08:43.902Z,27.09
2023-01-29T15:11:10.316Z,18.65
2023-01-29T15:13:36.772Z,17.45
2023-01-29T15:16:03.751Z,16.34
2023-01-29T15:18:30.221Z,17.97
2023-01-29T15:20:56.624Z,17.54
2023-01-29T15:23:26.066Z,16.86
2023-01-29T15:25:52.468Z,17.47
2023-01-29T15:28:18.872Z,17.38
2023-01-29T15:30:45.765Z,17.07
2023-01-29T15:33:12.216Z,19.40
2023-01-29T15:35:38.638Z,17.71
2023-01-29T15:38:05.060Z,17.42
2023-01-29T15:40:31.488Z,19.93
2023-01-29T15:42:57.952Z,19.16
2023-01-29T15:45:24.877Z,18.22
2023-01-29T15:47:51.460Z,18.53
2023-01-29T15:50:17.904Z,19.61
2023-01-29T15:52:44.678Z,18.73
2023-01-29T15:55:11.208Z,18.05
2023-01-29T15:57:37.849Z,18.53
2023-01-29T16:00:04.235Z,19.08
2023-01-29T16:02:30.776Z,19.61
2023-01-29T16:04:57.619Z,19.12
2023-01-29T16:07:24.041Z,19.48
2023-01-29T16:09:50.470Z,18.78
2023-01-29T16:12:16.903Z,18.16
2023-01-29T16:14:43.332Z,18.47
2023-01-29T16:17:10.113Z,18.47
2023-01-29T16:19:36.511Z,18.70
2023-01-29T16:22:02.919Z,18.86
2023-01-29T16:24:29.340Z,18.73
2023-01-29T16:26:56.946Z,18.27
2023-01-29T16:29:23.359Z,18.38
2023-01-29T16:31:49.877Z,18.58
2023-01-29T16:34:16.326Z,18.12
2023-01-29T16:36:42.791Z,18.12
2023-01-29T16:39:09.186Z,18.30
2023-01-29T16:41:36.451Z,21.07
2023-01-29T16:44:03.244Z,19.67
2023-01-29T16:46:30.657Z,19.30
2023-01-29T16:48:57.086Z,21.16
2023-01-29T16:51:23.502Z,20.89
2023-01-29T16:53:49.901Z,20.27
2023-01-29T16:56:17.049Z,20.17
2023-01-29T16:58:43.634Z,20.69
2023-01-29T17:01:10.261Z,21.42
2023-01-29T17:03:36.721Z,20.95
2023-01-29T17:06:03.153Z,23.08
2023-01-29T17:08:29.827Z,23.45
2023-01-29T17:10:56.292Z,24.16
2023-01-29T17:13:22.725Z,24.35
2023-01-29T17:15:49.808Z,24.35
2023-01-29T17:18:17.381Z,25.82
2023-01-29T17:20:44.002Z,25.71
2023-01-29T17:23:10.565Z,23.98
2023-01-29T17:25:37.407Z,25.34
2023-01-29T17:28:04.772Z,23.55
2023-01-29T17:30:32.385Z,22.71
2023-01-29T17:32:59.065Z,23.16
2023-01-29T17:35:25.497Z,22.67
2023-01-29T17:37:52.227Z,24.66
2023-01-29T17:40:18.838Z,24.13
2023-01-29T17:42:45.429Z,23.94
2023-01-29T17:45:11.867Z,24.49
2023-01-29T17:47:38.607Z,25.73
2023-01-29T17:50:06.415Z,26.05
2023-01-29T17:52:33.794Z,28.04
2023-01-29T17:55:01.406Z,28.23
2023-01-29T17:57:27.842Z,26.49
2023-01-29T17:59:54.274Z,24.19
2023-01-29T18:02:28.810Z,23.63
2023-01-29T18:04:56.237Z,24.86
2023-01-29T18:07:22.677Z,23.48
2023-01-29T18:09:51.001Z,23.89
2023-01-29T18:12:17.581Z,23.55
2023-01-29T18:14:44.028Z,27.76
2023-01-29T18:17:10.445Z,44.53
2023-01-29T18:19:36.857Z,25.19
2023-01-29T18:22:03.958Z,23.94
2023-01-29T18:24:31.583Z,23.57
2023-01-29T18:26:59.165Z,22.75
2023-01-29T18:29:25.742Z,23.52
2023-01-29T18:31:53.450Z,22.28
2023-01-29T18:34:19.959Z,22.46
2023-01-29T18:36:46.360Z,22.15
2023-01-29T18:39:12.826Z,22.23
2023-01-29T18:41:39.254Z,23.24
2023-01-29T18:44:05.698Z,23.59
2023-01-29T18:46:33.088Z,27.25
2023-01-29T18:49:00.711Z,30.63
2023-01-29T18:51:28.330Z,29.60
2023-01-29T18:53:56.896Z,28.34
2023-01-29T18:56:25.496Z,27.85
2023-01-29T18:58:53.168Z,27.56
2023-01-29T19:01:22.740Z,27.19
2023-01-29T19:03:49.545Z,26.15
2023-01-29T19:06:15.983Z,25.11
2023-01-29T19:08:42.393Z,24.14
2023-01-29T19:11:08.936Z,24.36
2023-01-29T19:13:35.461Z,24.26
2023-01-29T19:16:01.908Z,24.14
2023-01-29T19:18:28.354Z,34.20
2023-01-29T19:20:55.508Z,31.46
2023-01-29T19:23:23.227Z,29.16
2023-01-29T19:25:50.678Z,26.81
2023-01-29T19:28:17.270Z,27.42
2023-01-29T19:30:43.888Z,27.82
2023-01-29T19:33:10.800Z,27.95
2023-01-29T19:35:37.240Z,27.05
2023-01-29T19:38:04.716Z,27.06
2023-01-29T19:40:32.279Z,26.61
2023-01-29T19:42:58.960Z,26.42
2023-01-29T19:45:49.520Z,28.74
2023-01-29T19:48:12.875Z,27.51
2023-01-29T19:50:39.341Z,26.44
2023-01-29T19:53:05.805Z,26.36
2023-01-29T19:55:32.235Z,24.61
2023-01-29T19:57:58.672Z,24.78
2023-01-29T20:00:25.122Z,24.24
2023-01-29T20:02:51.542Z,25.29
2023-01-29T20:05:18.802Z,23.23
2023-01-29T20:07:45.916Z,24.28
2023-01-29T20:10:12.519Z,23.98
2023-01-29T20:12:39.124Z,23.17
2023-01-29T20:15:06.709Z,23.30
2023-01-29T20:17:34.296Z,22.93
2023-01-29T20:20:02.686Z,26.73
2023-01-29T20:22:29.484Z,29.86
2023-01-29T20:24:57.074Z,29.02
2023-01-29T20:27:23.671Z,27.78
2023-01-29T20:29:50.255Z,42.97
2023-01-29T20:32:17.871Z,33.93
2023-01-29T20:34:45.434Z,26.52
2023-01-29T20:37:11.888Z,25.85
2023-01-29T20:39:38.338Z,29.76
2023-01-29T20:42:05.201Z,29.58
2023-01-29T20:44:32.797Z,26.50
2023-01-29T20:47:01.863Z,27.14
2023-01-29T20:49:28.978Z,27.14
2023-01-29T20:51:55.450Z,26.61
2023-01-29T20:54:21.892Z,27.54
2023-01-29T20:56:48.457Z,28.82
2023-01-29T20:59:15.145Z,27.62
2023-01-29T21:01:42.503Z,25.63
2023-01-29T21:04:08.949Z,24.69
2023-01-29T21:06:35.393Z,24.57
2023-01-29T21:09:01.814Z,25.54
2023-01-29T21:11:28.309Z,25.41
2023-01-29T21:13:55.102Z,26.16
2023-01-29T21:16:21.636Z,25.10
2023-01-29T21:18:48.359Z,23.66
2023-01-29T21:21:14.791Z,23.72
2023-01-29T21:23:41.235Z,23.56
2023-01-29T21:26:08.122Z,22.19
2023-01-29T21:28:35.710Z,21.04
2023-01-29T21:31:02.594Z,20.21
2023-01-29T21:33:29.042Z,19.57
2023-01-29T21:35:55.463Z,20.24
2023-01-29T21:38:21.915Z,19.46
2023-01-29T21:40:48.335Z,18.06
2023-01-29T21:43:14.784Z,17.01
2023-01-29T21:45:41.405Z,18.19
2023-01-29T21:48:08.455Z,17.83
2023-01-29T21:50:35.023Z,18.37
2023-01-29T21:53:01.644Z,18.28
2023-01-29T21:55:29.233Z,18.20
2023-01-29T21:57:55.659Z,18.31
2023-01-29T22:00:22.079Z,19.29
2023-01-29T22:02:48.549Z,19.12
2023-01-29T22:05:19.620Z,19.71
2023-01-29T22:07:48.292Z,20.38
2023-01-29T22:10:16.278Z,20.46
2023-01-29T22:12:43.406Z,21.05
2023-01-29T22:15:09.994Z,19.74
2023-01-29T22:17:36.594Z,20.56
2023-01-29T22:20:04.168Z,22.35
2023-01-29T22:22:31.764Z,21.81
2023-01-29T22:24:59.372Z,22.40
2023-01-29T22:27:25.831Z,21.15
2023-01-29T22:29:52.544Z,21.51
2023-01-29T22:32:20.157Z,19.88
2023-01-29T22:34:47.731Z,18.37
2023-01-29T22:37:15.328Z,18.66
2023-01-29T22:39:41.926Z,19.47
2023-01-29T22:42:09.530Z,19.73
2023-01-29T22:44:37.090Z,19.38
2023-01-29T22:47:04.711Z,19.17
2023-01-29T22:49:31.282Z,19.23
2023-01-29T22:52:00.565Z,18.74
2023-01-29T22:54:27.466Z,18.73
2023-01-29T22:56:53.903Z,18.62
2023-01-29T22:59:20.358Z,18.71
2023-01-29T23:01:46.841Z,18.52
2023-01-29T23:04:13.877Z,19.68
2023-01-29T23:06:41.439Z,19.26
2023-01-29T23:09:08.020Z,20.15
2023-01-29T23:11:35.619Z,19.85
2023-01-29T23:14:02.059Z,20.15
2023-01-29T23:16:28.910Z,20.32
2023-01-29T23:18:56.487Z,19.58
2023-01-29T23:21:25.237Z,19.68
2023-01-29T23:23:52.262Z,19.10
2023-01-29T23:26:19.322Z,18.53
2023-01-29T23:28:46.879Z,17.60
2023-01-29T23:31:13.497Z,18.11
2023-01-29T23:33:40.050Z,21.96
2023-01-29T23:36:07.674Z,18.14
2023-01-29T23:38:34.274Z,17.95
2023-01-29T23:41:00.855Z,15.86
2023-01-29T23:43:27.271Z,15.66
2023-01-29T23:45:54.037Z,15.11
2023-01-29T23:48:21.616Z,14.92
2023-01-29T23:50:48.482Z,15.67
2023-01-29T23:53:14.907Z,15.67
2023-01-29T23:55:42.459Z,15.29
2023-01-29T23:58:09.266Z,15.36
